sensor_id;sensor_type;location;lat;lon;timestamp;P1;durP1;ratioP1;P2;durP2;ratioP2
3547;SDS011;1788;49.400;11.092;2022-10-16T00:01:58;2.43;;;2.23;;
3547;SDS011;1788;49.400;11.092;2022-10-16T00:04:25;4.50;;;2.20;;
3547;SDS011;1788;49.400;11.092;2022-10-16T00:06:51;2.50;;;2.07;;
3547;SDS011;1788;49.400;11.092;2022-10-16T00:09:19;2.70;;;2.53;;
3547;SDS011;1788;49.400;11.092;2022-10-16T00:11:45;2.30;;;2.10;;
3547;SDS011;1788;49.400;11.092;2022-10-16T00:14:13;2.47;;;2.27;;
3547;SDS011;1788;49.400;11.092;2022-10-16T00:16:39;3.43;;;2.27;;
3547;SDS011;1788;49.400;11.092;2022-10-16T00:19:05;2.77;;;2.00;;
3547;SDS011;1788;49.400;11.092;2022-10-16T00:21:33;2.27;;;2.03;;
3547;SDS011;1788;49.400;11.092;2022-10-16T00:26:27;2.47;;;2.23;;
3547;SDS011;1788;49.400;11.092;2022-10-16T00:28:53;2.33;;;2.13;;
3547;SDS011;1788;49.400;11.092;2022-10-16T00:31:20;2.67;;;2.20;;
3547;SDS011;1788;49.400;11.092;2022-10-16T00:33:47;4.30;;;2.53;;
3547;SDS011;1788;49.400;11.092;2022-10-16T00:36:14;2.53;;;1.70;;
3547;SDS011;1788;49.400;11.092;2022-10-16T00:38:40;2.20;;;2.00;;
3547;SDS011;1788;49.400;11.092;2022-10-16T00:41:10;1.70;;;1.60;;
3547;SDS011;1788;49.400;11.092;2022-10-16T00:43:36;2.77;;;2.57;;
3547;SDS011;1788;49.400;11.092;2022-10-16T00:46:02;2.77;;;2.00;;
3547;SDS011;1788;49.400;11.092;2022-10-16T00:48:28;2.30;;;2.07;;
3547;SDS011;1788;49.400;11.092;2022-10-16T00:50:55;2.37;;;2.10;;
3547;SDS011;1788;49.400;11.092;2022-10-16T00:53:22;2.63;;;2.00;;
3547;SDS011;1788;49.400;11.092;2022-10-16T00:55:48;3.37;;;3.23;;
3547;SDS011;1788;49.400;11.092;2022-10-16T00:58:15;4.63;;;2.33;;
3547;SDS011;1788;49.400;11.092;2022-10-16T01:00:42;3.23;;;2.37;;
3547;SDS011;1788;49.400;11.092;2022-10-16T01:05:39;1.97;;;1.83;;
3547;SDS011;1788;49.400;11.092;2022-10-16T01:08:06;2.30;;;2.10;;
3547;SDS011;1788;49.400;11.092;2022-10-16T01:22:47;3.90;;;2.30;;
3547;SDS011;1788;49.400;11.092;2022-10-16T01:25:13;2.07;;;1.93;;
3547;SDS011;1788;49.400;11.092;2022-10-16T01:27:37;2.63;;;2.43;;
3547;SDS011;1788;49.400;11.092;2022-10-16T01:32:33;4.60;;;2.40;;
3547;SDS011;1788;49.400;11.092;2022-10-16T01:39:53;2.33;;;2.13;;
3547;SDS011;1788;49.400;11.092;2022-10-16T01:44:46;2.47;;;2.00;;
3547;SDS011;1788;49.400;11.092;2022-10-16T01:47:13;4.50;;;2.93;;
3547;SDS011;1788;49.400;11.092;2022-10-16T01:49:39;2.23;;;2.03;;
3547;SDS011;1788;49.400;11.092;2022-10-16T01:52:09;3.93;;;2.53;;
3547;SDS011;1788;49.400;11.092;2022-10-16T01:54:34;2.10;;;1.97;;
3547;SDS011;1788;49.400;11.092;2022-10-16T01:57:00;2.43;;;2.23;;
3547;SDS011;1788;49.400;11.092;2022-10-16T01:59:27;5.83;;;2.70;;
3547;SDS011;1788;49.400;11.092;2022-10-16T02:01:54;3.00;;;2.03;;
3547;SDS011;1788;49.400;11.092;2022-10-16T02:04:22;2.27;;;2.07;;
3547;SDS011;1788;49.400;11.092;2022-10-16T02:06:47;3.57;;;2.33;;
3547;SDS011;1788;49.400;11.092;2022-10-16T02:09:14;3.57;;;2.03;;
3547;SDS011;1788;49.400;11.092;2022-10-16T02:11:40;2.63;;;2.43;;
3547;SDS011;1788;49.400;11.092;2022-10-16T02:14:07;3.13;;;2.40;;
3547;SDS011;1788;49.400;11.092;2022-10-16T02:19:01;4.63;;;2.47;;
3547;SDS011;1788;49.400;11.092;2022-10-16T02:23:57;2.73;;;1.93;;
3547;SDS011;1788;49.400;11.092;2022-10-16T02:26:25;3.67;;;2.07;;
3547;SDS011;1788;49.400;11.092;2022-10-16T02:28:48;3.47;;;2.20;;
3547;SDS011;1788;49.400;11.092;2022-10-16T02:31:16;2.27;;;2.07;;
3547;SDS011;1788;49.400;11.092;2022-10-16T02:46:05;5.53;;;2.00;;
3547;SDS011;1788;49.400;11.092;2022-10-16T02:48:31;2.03;;;1.87;;
3547;SDS011;1788;49.400;11.092;2022-10-16T02:50:58;3.17;;;2.30;;
3547;SDS011;1788;49.400;11.092;2022-10-16T02:53:24;2.40;;;1.80;;
3547;SDS011;1788;49.400;11.092;2022-10-16T02:55:51;1.83;;;1.73;;
3547;SDS011;1788;49.400;11.092;2022-10-16T02:58:18;3.43;;;1.87;;
3547;SDS011;1788;49.400;11.092;2022-10-16T03:00:45;3.77;;;2.37;;
3547;SDS011;1788;49.400;11.092;2022-10-16T03:03:11;2.53;;;1.90;;
3547;SDS011;1788;49.400;11.092;2022-10-16T03:05:39;2.80;;;2.17;;
3547;SDS011;1788;49.400;11.092;2022-10-16T03:08:05;5.17;;;2.53;;
3547;SDS011;1788;49.400;11.092;2022-10-16T03:10:33;1.87;;;1.77;;
3547;SDS011;1788;49.400;11.092;2022-10-16T03:12:59;3.97;;;2.27;;
3547;SDS011;1788;49.400;11.092;2022-10-16T03:15:26;2.67;;;2.00;;
3547;SDS011;1788;49.400;11.092;2022-10-16T03:17:53;2.63;;;2.43;;
3547;SDS011;1788;49.400;11.092;2022-10-16T03:20:19;1.80;;;1.70;;
3547;SDS011;1788;49.400;11.092;2022-10-16T03:22:46;3.07;;;1.97;;
3547;SDS011;1788;49.400;11.092;2022-10-16T03:25:13;2.87;;;2.67;;
3547;SDS011;1788;49.400;11.092;2022-10-16T03:27:41;2.30;;;1.90;;
3547;SDS011;1788;49.400;11.092;2022-10-16T03:32:35;1.97;;;1.87;;
3547;SDS011;1788;49.400;11.092;2022-10-16T03:35:02;2.63;;;2.07;;
3547;SDS011;1788;49.400;11.092;2022-10-16T03:37:29;4.97;;;2.30;;
3547;SDS011;1788;49.400;11.092;2022-10-16T03:39:55;1.90;;;1.80;;
3547;SDS011;1788;49.400;11.092;2022-10-16T03:42:22;1.87;;;1.77;;
3547;SDS011;1788;49.400;11.092;2022-10-16T03:44:48;1.60;;;1.50;;
3547;SDS011;1788;49.400;11.092;2022-10-16T03:47:15;1.80;;;1.70;;
3547;SDS011;1788;49.400;11.092;2022-10-16T03:49:42;2.57;;;1.97;;
3547;SDS011;1788;49.400;11.092;2022-10-16T03:52:09;3.40;;;1.97;;
3547;SDS011;1788;49.400;11.092;2022-10-16T03:54:36;3.13;;;1.73;;
3547;SDS011;1788;49.400;11.092;2022-10-16T03:57:03;2.27;;;1.90;;
3547;SDS011;1788;49.400;11.092;2022-10-16T03:59:30;2.20;;;2.00;;
3547;SDS011;1788;49.400;11.092;2022-10-16T04:01:56;1.80;;;1.70;;
3547;SDS011;1788;49.400;11.092;2022-10-16T04:04:24;2.20;;;2.00;;
3547;SDS011;1788;49.400;11.092;2022-10-16T04:06:51;1.90;;;1.80;;
3547;SDS011;1788;49.400;11.092;2022-10-16T04:09:17;3.30;;;1.80;;
3547;SDS011;1788;49.400;11.092;2022-10-16T04:11:45;2.10;;;1.83;;
3547;SDS011;1788;49.400;11.092;2022-10-16T04:14:11;1.97;;;1.87;;
3547;SDS011;1788;49.400;11.092;2022-10-16T04:16:39;3.33;;;1.90;;
3547;SDS011;1788;49.400;11.092;2022-10-16T04:19:06;2.70;;;2.07;;
3547;SDS011;1788;49.400;11.092;2022-10-16T04:21:33;1.87;;;1.77;;
3547;SDS011;1788;49.400;11.092;2022-10-16T04:23:59;1.83;;;1.73;;
3547;SDS011;1788;49.400;11.092;2022-10-16T04:26:26;1.90;;;1.80;;
3547;SDS011;1788;49.400;11.092;2022-10-16T04:28:52;1.43;;;1.33;;
3547;SDS011;1788;49.400;11.092;2022-10-16T04:31:20;1.70;;;1.60;;
3547;SDS011;1788;49.400;11.092;2022-10-16T04:33:47;4.13;;;2.30;;
3547;SDS011;1788;49.400;11.092;2022-10-16T04:36:13;2.77;;;2.07;;
3547;SDS011;1788;49.400;11.092;2022-10-16T04:38:40;3.27;;;2.00;;
3547;SDS011;1788;49.400;11.092;2022-10-16T04:41:07;3.97;;;2.10;;
3547;SDS011;1788;49.400;11.092;2022-10-16T04:43:33;3.53;;;2.53;;
3547;SDS011;1788;49.400;11.092;2022-10-16T04:46:00;2.60;;;2.40;;
3547;SDS011;1788;49.400;11.092;2022-10-16T04:48:26;1.87;;;1.83;;
3547;SDS011;1788;49.400;11.092;2022-10-16T04:50:53;4.53;;;1.90;;
3547;SDS011;1788;49.400;11.092;2022-10-16T04:53:20;2.57;;;1.80;;
3547;SDS011;1788;49.400;11.092;2022-10-16T04:55:46;2.03;;;1.57;;
3547;SDS011;1788;49.400;11.092;2022-10-16T04:58:13;3.30;;;2.10;;
3547;SDS011;1788;49.400;11.092;2022-10-16T05:00:40;2.50;;;1.83;;
3547;SDS011;1788;49.400;11.092;2022-10-16T05:03:07;2.37;;;2.17;;
3547;SDS011;1788;49.400;11.092;2022-10-16T05:05:34;1.87;;;1.80;;
3547;SDS011;1788;49.400;11.092;2022-10-16T05:08:01;1.67;;;1.60;;
3547;SDS011;1788;49.400;11.092;2022-10-16T05:10:28;2.70;;;1.83;;
3547;SDS011;1788;49.400;11.092;2022-10-16T05:12:54;2.00;;;1.90;;
3547;SDS011;1788;49.400;11.092;2022-10-16T05:15:21;2.50;;;2.13;;
3547;SDS011;1788;49.400;11.092;2022-10-16T05:17:51;1.90;;;1.80;;
3547;SDS011;1788;49.400;11.092;2022-10-16T05:20:15;5.33;;;1.97;;
3547;SDS011;1788;49.400;11.092;2022-10-16T05:22:41;2.83;;;1.70;;
3547;SDS011;1788;49.400;11.092;2022-10-16T05:25:09;4.13;;;2.03;;
3547;SDS011;1788;49.400;11.092;2022-10-16T05:27:36;3.27;;;2.03;;
3547;SDS011;1788;49.400;11.092;2022-10-16T05:30:03;1.87;;;1.67;;
3547;SDS011;1788;49.400;11.092;2022-10-16T05:32:29;4.20;;;2.23;;
3547;SDS011;1788;49.400;11.092;2022-10-16T05:34:56;1.53;;;1.43;;
3547;SDS011;1788;49.400;11.092;2022-10-16T05:37:23;1.90;;;1.80;;
3547;SDS011;1788;49.400;11.092;2022-10-16T05:39:50;2.53;;;2.23;;
3547;SDS011;1788;49.400;11.092;2022-10-16T05:42:17;1.67;;;1.57;;
3547;SDS011;1788;49.400;11.092;2022-10-16T05:44:44;2.27;;;2.07;;
3547;SDS011;1788;49.400;11.092;2022-10-16T05:47:12;2.27;;;1.80;;
3547;SDS011;1788;49.400;11.092;2022-10-16T05:49:38;2.53;;;2.37;;
3547;SDS011;1788;49.400;11.092;2022-10-16T05:52:04;3.17;;;2.57;;
3547;SDS011;1788;49.400;11.092;2022-10-16T05:54:31;2.23;;;1.90;;
3547;SDS011;1788;49.400;11.092;2022-10-16T05:56:58;2.20;;;2.00;;
3547;SDS011;1788;49.400;11.092;2022-10-16T05:59:24;2.10;;;1.77;;
3547;SDS011;1788;49.400;11.092;2022-10-16T06:01:52;3.07;;;2.40;;
3547;SDS011;1788;49.400;11.092;2022-10-16T06:04:20;2.50;;;2.30;;
3547;SDS011;1788;49.400;11.092;2022-10-16T06:06:46;4.27;;;2.37;;
3547;SDS011;1788;49.400;11.092;2022-10-16T06:09:13;1.93;;;1.90;;
3547;SDS011;1788;49.400;11.092;2022-10-16T06:11:39;5.53;;;2.20;;
3547;SDS011;1788;49.400;11.092;2022-10-16T06:14:07;2.33;;;2.13;;
3547;SDS011;1788;49.400;11.092;2022-10-16T06:16:34;3.30;;;2.10;;
3547;SDS011;1788;49.400;11.092;2022-10-16T06:19:01;2.67;;;2.27;;
3547;SDS011;1788;49.400;11.092;2022-10-16T06:21:28;2.70;;;2.37;;
3547;SDS011;1788;49.400;11.092;2022-10-16T06:23:55;3.13;;;1.93;;
3547;SDS011;1788;49.400;11.092;2022-10-16T06:26:22;3.63;;;2.13;;
3547;SDS011;1788;49.400;11.092;2022-10-16T06:28:48;4.20;;;2.27;;
3547;SDS011;1788;49.400;11.092;2022-10-16T06:31:16;2.23;;;2.07;;
3547;SDS011;1788;49.400;11.092;2022-10-16T06:33:42;3.60;;;2.43;;
3547;SDS011;1788;49.400;11.092;2022-10-16T06:36:10;2.23;;;2.03;;
3547;SDS011;1788;49.400;11.092;2022-10-16T06:38:36;3.23;;;2.13;;
3547;SDS011;1788;49.400;11.092;2022-10-16T06:41:03;1.80;;;1.70;;
3547;SDS011;1788;49.400;11.092;2022-10-16T06:43:30;3.67;;;2.43;;
3547;SDS011;1788;49.400;11.092;2022-10-16T06:45:56;1.77;;;1.67;;
3547;SDS011;1788;49.400;11.092;2022-10-16T06:48:23;2.63;;;2.20;;
3547;SDS011;1788;49.400;11.092;2022-10-16T06:53:17;1.77;;;1.70;;
3547;SDS011;1788;49.400;11.092;2022-10-16T06:55:44;2.80;;;1.83;;
3547;SDS011;1788;49.400;11.092;2022-10-16T06:58:10;3.17;;;2.67;;
3547;SDS011;1788;49.400;11.092;2022-10-16T07:00:37;2.07;;;1.80;;
3547;SDS011;1788;49.400;11.092;2022-10-16T07:03:03;1.97;;;1.83;;
3547;SDS011;1788;49.400;11.092;2022-10-16T07:05:30;2.70;;;1.83;;
3547;SDS011;1788;49.400;11.092;2022-10-16T07:07:57;2.70;;;1.70;;
3547;SDS011;1788;49.400;11.092;2022-10-16T07:10:23;2.03;;;1.73;;
3547;SDS011;1788;49.400;11.092;2022-10-16T07:12:50;3.23;;;2.13;;
3547;SDS011;1788;49.400;11.092;2022-10-16T07:15:17;2.43;;;1.87;;
3547;SDS011;1788;49.400;11.092;2022-10-16T07:17:43;2.93;;;1.90;;
3547;SDS011;1788;49.400;11.092;2022-10-16T07:20:10;1.87;;;1.77;;
3547;SDS011;1788;49.400;11.092;2022-10-16T07:22:36;4.70;;;2.10;;
3547;SDS011;1788;49.400;11.092;2022-10-16T07:25:04;2.13;;;1.70;;
3547;SDS011;1788;49.400;11.092;2022-10-16T07:27:30;2.20;;;2.00;;
3547;SDS011;1788;49.400;11.092;2022-10-16T07:29:57;1.97;;;1.90;;
3547;SDS011;1788;49.400;11.092;2022-10-16T07:32:24;3.20;;;1.90;;
3547;SDS011;1788;49.400;11.092;2022-10-16T07:34:51;2.90;;;2.10;;
3547;SDS011;1788;49.400;11.092;2022-10-16T07:37:18;3.23;;;2.10;;
3547;SDS011;1788;49.400;11.092;2022-10-16T07:39:44;3.40;;;2.77;;
3547;SDS011;1788;49.400;11.092;2022-10-16T07:42:12;2.57;;;2.33;;
3547;SDS011;1788;49.400;11.092;2022-10-16T07:44:38;2.90;;;2.67;;
3547;SDS011;1788;49.400;11.092;2022-10-16T07:47:05;2.53;;;2.37;;
3547;SDS011;1788;49.400;11.092;2022-10-16T07:49:31;3.00;;;2.77;;
3547;SDS011;1788;49.400;11.092;2022-10-16T07:51:58;5.03;;;2.37;;
3547;SDS011;1788;49.400;11.092;2022-10-16T07:54:25;3.80;;;1.90;;
3547;SDS011;1788;49.400;11.092;2022-10-16T07:56:52;2.80;;;2.13;;
3547;SDS011;1788;49.400;11.092;2022-10-16T07:59:19;2.87;;;2.23;;
3547;SDS011;1788;49.400;11.092;2022-10-16T08:01:46;3.73;;;2.33;;
3547;SDS011;1788;49.400;11.092;2022-10-16T08:04:13;2.20;;;2.00;;
3547;SDS011;1788;49.400;11.092;2022-10-16T08:06:39;2.20;;;2.00;;
3547;SDS011;1788;49.400;11.092;2022-10-16T08:09:06;4.00;;;2.13;;
3547;SDS011;1788;49.400;11.092;2022-10-16T08:11:32;2.23;;;2.10;;
3547;SDS011;1788;49.400;11.092;2022-10-16T08:13:59;2.57;;;2.33;;
3547;SDS011;1788;49.400;11.092;2022-10-16T08:16:26;2.40;;;2.20;;
3547;SDS011;1788;49.400;11.092;2022-10-16T08:18:52;2.30;;;2.10;;
3547;SDS011;1788;49.400;11.092;2022-10-16T08:21:20;6.47;;;2.10;;
3547;SDS011;1788;49.400;11.092;2022-10-16T08:23:46;5.53;;;2.90;;
3547;SDS011;1788;49.400;11.092;2022-10-16T08:26:13;4.00;;;2.17;;
3547;SDS011;1788;49.400;11.092;2022-10-16T08:28:39;2.70;;;2.50;;
3547;SDS011;1788;49.400;11.092;2022-10-16T08:33:33;2.37;;;2.10;;
3547;SDS011;1788;49.400;11.092;2022-10-16T08:36:00;2.73;;;2.40;;
3547;SDS011;1788;49.400;11.092;2022-10-16T08:38:27;4.33;;;2.37;;
3547;SDS011;1788;49.400;11.092;2022-10-16T08:40:55;3.70;;;2.20;;
3547;SDS011;1788;49.400;11.092;2022-10-16T08:48:17;3.60;;;2.67;;
3547;SDS011;1788;49.400;11.092;2022-10-16T08:50:41;2.70;;;2.50;;
3547;SDS011;1788;49.400;11.092;2022-10-16T08:53:10;4.03;;;3.10;;
3547;SDS011;1788;49.400;11.092;2022-10-16T08:58:05;2.13;;;1.80;;
3547;SDS011;1788;49.400;11.092;2022-10-16T09:00:29;2.83;;;2.37;;
3547;SDS011;1788;49.400;11.092;2022-10-16T09:05:24;5.27;;;2.43;;
3547;SDS011;1788;49.400;11.092;2022-10-16T09:10:20;3.23;;;2.33;;
3547;SDS011;1788;49.400;11.092;2022-10-16T09:17:40;2.37;;;2.10;;
3547;SDS011;1788;49.400;11.092;2022-10-16T09:22:29;2.30;;;2.13;;
3547;SDS011;1788;49.400;11.092;2022-10-16T09:24:57;2.17;;;1.83;;
3547;SDS011;1788;49.400;11.092;2022-10-16T09:27:22;2.30;;;2.10;;
3547;SDS011;1788;49.400;11.092;2022-10-16T09:29:49;2.50;;;2.00;;
3547;SDS011;1788;49.400;11.092;2022-10-16T09:32:17;2.40;;;2.20;;
3547;SDS011;1788;49.400;11.092;2022-10-16T09:34:45;7.50;;;7.10;;
3547;SDS011;1788;49.400;11.092;2022-10-16T09:37:12;5.10;;;4.80;;
3547;SDS011;1788;49.400;11.092;2022-10-16T09:42:03;2.80;;;2.60;;
3547;SDS011;1788;49.400;11.092;2022-10-16T09:44:30;2.57;;;2.33;;
3547;SDS011;1788;49.400;11.092;2022-10-16T09:49:25;3.60;;;2.60;;
3547;SDS011;1788;49.400;11.092;2022-10-16T09:51:51;6.57;;;2.40;;
3547;SDS011;1788;49.400;11.092;2022-10-16T09:54:18;2.60;;;2.43;;
3547;SDS011;1788;49.400;11.092;2022-10-16T09:56:44;4.77;;;2.67;;
3547;SDS011;1788;49.400;11.092;2022-10-16T09:59:12;4.03;;;3.77;;
3547;SDS011;1788;49.400;11.092;2022-10-16T10:01:38;2.20;;;2.00;;
3547;SDS011;1788;49.400;11.092;2022-10-16T10:04:04;2.50;;;2.10;;
3547;SDS011;1788;49.400;11.092;2022-10-16T10:06:33;3.80;;;2.30;;
3547;SDS011;1788;49.400;11.092;2022-10-16T10:13:51;3.37;;;2.20;;
3547;SDS011;1788;49.400;11.092;2022-10-16T10:16:23;3.10;;;1.93;;
3547;SDS011;1788;49.400;11.092;2022-10-16T10:18:57;4.73;;;2.57;;
3547;SDS011;1788;49.400;11.092;2022-10-16T10:21:15;4.57;;;1.83;;
3547;SDS011;1788;49.400;11.092;2022-10-16T10:23:42;3.70;;;2.33;;
3547;SDS011;1788;49.400;11.092;2022-10-16T10:38:27;3.23;;;2.03;;
3547;SDS011;1788;49.400;11.092;2022-10-16T10:45:45;1.90;;;1.80;;
3547;SDS011;1788;49.400;11.092;2022-10-16T10:53:09;3.27;;;1.90;;
3547;SDS011;1788;49.400;11.092;2022-10-16T11:10:15;3.27;;;2.20;;
3547;SDS011;1788;49.400;11.092;2022-10-16T11:17:35;2.53;;;2.30;;
3547;SDS011;1788;49.400;11.092;2022-10-16T11:20:03;2.10;;;1.80;;
3547;SDS011;1788;49.400;11.092;2022-10-16T11:24:55;2.13;;;1.63;;
3547;SDS011;1788;49.400;11.092;2022-10-16T11:27:23;1.83;;;1.77;;
3547;SDS011;1788;49.400;11.092;2022-10-16T11:29:49;2.30;;;2.10;;
3547;SDS011;1788;49.400;11.092;2022-10-16T11:34:42;2.17;;;1.80;;
3547;SDS011;1788;49.400;11.092;2022-10-16T11:39:33;5.80;;;2.20;;
3547;SDS011;1788;49.400;11.092;2022-10-16T11:49:21;2.30;;;1.67;;
3547;SDS011;1788;49.400;11.092;2022-10-16T11:51:48;1.80;;;1.70;;
3547;SDS011;1788;49.400;11.092;2022-10-16T11:56:42;2.23;;;1.60;;
3547;SDS011;1788;49.400;11.092;2022-10-16T11:59:13;3.73;;;2.50;;
3547;SDS011;1788;49.400;11.092;2022-10-16T12:01:38;2.23;;;1.97;;
3547;SDS011;1788;49.400;11.092;2022-10-16T12:08:55;3.23;;;1.70;;
3547;SDS011;1788;49.400;11.092;2022-10-16T12:13:48;1.97;;;1.67;;
3547;SDS011;1788;49.400;11.092;2022-10-16T12:18:44;2.97;;;1.83;;
3547;SDS011;1788;49.400;11.092;2022-10-16T12:21:09;3.00;;;2.40;;
3547;SDS011;1788;49.400;11.092;2022-10-16T12:26:03;1.97;;;1.87;;
3547;SDS011;1788;49.400;11.092;2022-10-16T12:28:30;4.03;;;1.83;;
3547;SDS011;1788;49.400;11.092;2022-10-16T12:35:50;1.97;;;1.73;;
3547;SDS011;1788;49.400;11.092;2022-10-16T12:38:18;4.93;;;2.27;;
3547;SDS011;1788;49.400;11.092;2022-10-16T12:40:43;2.80;;;1.63;;
3547;SDS011;1788;49.400;11.092;2022-10-16T12:45:37;2.47;;;1.73;;
3547;SDS011;1788;49.400;11.092;2022-10-16T12:48:17;2.53;;;1.50;;
3547;SDS011;1788;49.400;11.092;2022-10-16T12:52:57;2.57;;;2.10;;
3547;SDS011;1788;49.400;11.092;2022-10-16T12:55:24;1.90;;;1.80;;
3547;SDS011;1788;49.400;11.092;2022-10-16T13:19:59;2.83;;;1.93;;
3547;SDS011;1788;49.400;11.092;2022-10-16T13:22:30;1.43;;;1.33;;
3547;SDS011;1788;49.400;11.092;2022-10-16T13:29:40;1.53;;;1.43;;
3547;SDS011;1788;49.400;11.092;2022-10-16T13:32:07;2.93;;;1.63;;
3547;SDS011;1788;49.400;11.092;2022-10-16T13:34:41;1.20;;;1.10;;
3547;SDS011;1788;49.400;11.092;2022-10-16T13:36:59;3.00;;;1.57;;
3547;SDS011;1788;49.400;11.092;2022-10-16T13:39:28;2.00;;;1.50;;
3547;SDS011;1788;49.400;11.092;2022-10-16T13:44:20;1.47;;;1.30;;
3547;SDS011;1788;49.400;11.092;2022-10-16T13:46:47;1.47;;;1.40;;
3547;SDS011;1788;49.400;11.092;2022-10-16T13:49:15;2.20;;;1.63;;
3547;SDS011;1788;49.400;11.092;2022-10-16T13:51:41;1.73;;;1.67;;
3547;SDS011;1788;49.400;11.092;2022-10-16T13:54:09;1.37;;;1.27;;
3547;SDS011;1788;49.400;11.092;2022-10-16T13:56:34;2.33;;;1.57;;
3547;SDS011;1788;49.400;11.092;2022-10-16T14:01:30;1.30;;;1.20;;
3547;SDS011;1788;49.400;11.092;2022-10-16T14:04:00;1.57;;;1.50;;
3547;SDS011;1788;49.400;11.092;2022-10-16T14:06:23;2.43;;;1.50;;
3547;SDS011;1788;49.400;11.092;2022-10-16T14:16:15;3.93;;;2.03;;
3547;SDS011;1788;49.400;11.092;2022-10-16T14:18:38;1.50;;;1.40;;
3547;SDS011;1788;49.400;11.092;2022-10-16T14:21:05;1.27;;;1.17;;
3547;SDS011;1788;49.400;11.092;2022-10-16T14:23:34;1.67;;;1.57;;
3547;SDS011;1788;49.400;11.092;2022-10-16T14:28:25;2.03;;;1.30;;
3547;SDS011;1788;49.400;11.092;2022-10-16T14:30:53;1.90;;;1.20;;
3547;SDS011;1788;49.400;11.092;2022-10-16T14:35:45;2.13;;;1.30;;
3547;SDS011;1788;49.400;11.092;2022-10-16T14:40:38;2.67;;;1.40;;
3547;SDS011;1788;49.400;11.092;2022-10-16T14:43:05;2.20;;;1.50;;
3547;SDS011;1788;49.400;11.092;2022-10-16T14:45:33;1.17;;;1.07;;
3547;SDS011;1788;49.400;11.092;2022-10-16T14:48:00;1.27;;;1.20;;
3547;SDS011;1788;49.400;11.092;2022-10-16T14:50:26;1.93;;;1.63;;
3547;SDS011;1788;49.400;11.092;2022-10-16T14:52:53;1.60;;;1.50;;
3547;SDS011;1788;49.400;11.092;2022-10-16T14:55:19;2.23;;;1.37;;
3547;SDS011;1788;49.400;11.092;2022-10-16T14:57:46;1.87;;;1.67;;
3547;SDS011;1788;49.400;11.092;2022-10-16T15:02:40;3.17;;;2.00;;
3547;SDS011;1788;49.400;11.092;2022-10-16T15:07:34;1.40;;;1.33;;
3547;SDS011;1788;49.400;11.092;2022-10-16T15:10:01;1.40;;;1.30;;
3547;SDS011;1788;49.400;11.092;2022-10-16T15:12:27;1.40;;;1.33;;
3547;SDS011;1788;49.400;11.092;2022-10-16T15:14:54;1.57;;;1.30;;
3547;SDS011;1788;49.400;11.092;2022-10-16T15:17:20;1.57;;;1.47;;
3547;SDS011;1788;49.400;11.092;2022-10-16T15:19:48;1.30;;;1.20;;
3547;SDS011;1788;49.400;11.092;2022-10-16T15:22:15;2.20;;;1.70;;
3547;SDS011;1788;49.400;11.092;2022-10-16T15:24:41;3.00;;;1.40;;
3547;SDS011;1788;49.400;11.092;2022-10-16T15:27:08;4.80;;;1.40;;
3547;SDS011;1788;49.400;11.092;2022-10-16T15:29:35;1.63;;;1.50;;
3547;SDS011;1788;49.400;11.092;2022-10-16T15:32:02;1.50;;;1.40;;
3547;SDS011;1788;49.400;11.092;2022-10-16T15:34:29;1.73;;;1.63;;
3547;SDS011;1788;49.400;11.092;2022-10-16T15:36:56;3.20;;;1.80;;
3547;SDS011;1788;49.400;11.092;2022-10-16T15:39:23;1.73;;;1.63;;
3547;SDS011;1788;49.400;11.092;2022-10-16T15:41:49;1.30;;;1.10;;
3547;SDS011;1788;49.400;11.092;2022-10-16T15:44:16;2.67;;;2.47;;
3547;SDS011;1788;49.400;11.092;2022-10-16T15:46:42;1.67;;;1.57;;
3547;SDS011;1788;49.400;11.092;2022-10-16T15:49:10;3.37;;;1.80;;
3547;SDS011;1788;49.400;11.092;2022-10-16T15:54:04;2.13;;;1.97;;
3547;SDS011;1788;49.400;11.092;2022-10-16T15:56:31;1.87;;;1.47;;
3547;SDS011;1788;49.400;11.092;2022-10-16T15:58:58;1.97;;;1.73;;
3547;SDS011;1788;49.400;11.092;2022-10-16T16:01:26;2.23;;;2.03;;
3547;SDS011;1788;49.400;11.092;2022-10-16T16:03:52;3.43;;;2.50;;
3547;SDS011;1788;49.400;11.092;2022-10-16T16:06:19;2.47;;;2.27;;
3547;SDS011;1788;49.400;11.092;2022-10-16T16:08:46;2.33;;;2.10;;
3547;SDS011;1788;49.400;11.092;2022-10-16T16:11:14;2.30;;;2.10;;
3547;SDS011;1788;49.400;11.092;2022-10-16T16:13:41;3.90;;;2.50;;
3547;SDS011;1788;49.400;11.092;2022-10-16T16:16:09;2.50;;;2.27;;
3547;SDS011;1788;49.400;11.092;2022-10-16T16:18:35;4.53;;;3.20;;
3547;SDS011;1788;49.400;11.092;2022-10-16T16:21:01;6.00;;;3.83;;
3547;SDS011;1788;49.400;11.092;2022-10-16T16:23:29;12.27;;;7.50;;
3547;SDS011;1788;49.400;11.092;2022-10-16T16:28:23;6.80;;;4.33;;
3547;SDS011;1788;49.400;11.092;2022-10-16T16:30:50;5.27;;;2.60;;
3547;SDS011;1788;49.400;11.092;2022-10-16T16:33:16;3.57;;;2.47;;
3547;SDS011;1788;49.400;11.092;2022-10-16T16:35:42;3.97;;;2.30;;
3547;SDS011;1788;49.400;11.092;2022-10-16T16:38:10;2.60;;;2.40;;
3547;SDS011;1788;49.400;11.092;2022-10-16T16:40:36;5.50;;;2.43;;
3547;SDS011;1788;49.400;11.092;2022-10-16T16:43:03;2.27;;;2.07;;
3547;SDS011;1788;49.400;11.092;2022-10-16T16:45:30;5.57;;;3.50;;
3547;SDS011;1788;49.400;11.092;2022-10-16T16:47:56;6.80;;;4.40;;
3547;SDS011;1788;49.400;11.092;2022-10-16T16:50:23;6.13;;;5.07;;
3547;SDS011;1788;49.400;11.092;2022-10-16T16:52:49;6.60;;;5.37;;
3547;SDS011;1788;49.400;11.092;2022-10-16T16:55:17;11.20;;;6.67;;
3547;SDS011;1788;49.400;11.092;2022-10-16T16:57:44;9.30;;;5.60;;
3547;SDS011;1788;49.400;11.092;2022-10-16T17:00:11;7.33;;;5.37;;
3547;SDS011;1788;49.400;11.092;2022-10-16T17:02:37;9.53;;;6.23;;
3547;SDS011;1788;49.400;11.092;2022-10-16T17:05:04;7.60;;;5.27;;
3547;SDS011;1788;49.400;11.092;2022-10-16T17:07:31;9.90;;;6.37;;
3547;SDS011;1788;49.400;11.092;2022-10-16T17:09:57;8.57;;;5.50;;
3547;SDS011;1788;49.400;11.092;2022-10-16T17:12:24;6.83;;;4.20;;
3547;SDS011;1788;49.400;11.092;2022-10-16T17:14:51;8.93;;;4.33;;
3547;SDS011;1788;49.400;11.092;2022-10-16T17:17:17;5.13;;;3.23;;
3547;SDS011;1788;49.400;11.092;2022-10-16T17:19:44;5.73;;;4.07;;
3547;SDS011;1788;49.400;11.092;2022-10-16T17:22:10;4.27;;;3.93;;
3547;SDS011;1788;49.400;11.092;2022-10-16T17:24:37;3.47;;;3.27;;
3547;SDS011;1788;49.400;11.092;2022-10-16T17:27:04;3.70;;;2.87;;
3547;SDS011;1788;49.400;11.092;2022-10-16T17:29:30;4.90;;;2.80;;
3547;SDS011;1788;49.400;11.092;2022-10-16T17:31:57;2.77;;;2.57;;
3547;SDS011;1788;49.400;11.092;2022-10-16T17:34:23;4.43;;;2.53;;
3547;SDS011;1788;49.400;11.092;2022-10-16T17:36:50;2.53;;;2.23;;
3547;SDS011;1788;49.400;11.092;2022-10-16T17:39:17;3.03;;;2.70;;
3547;SDS011;1788;49.400;11.092;2022-10-16T17:41:45;6.03;;;2.93;;
3547;SDS011;1788;49.400;11.092;2022-10-16T17:44:11;3.17;;;2.13;;
3547;SDS011;1788;49.400;11.092;2022-10-16T17:46:37;2.60;;;2.20;;
3547;SDS011;1788;49.400;11.092;2022-10-16T17:49:04;3.43;;;1.97;;
3547;SDS011;1788;49.400;11.092;2022-10-16T17:51:31;2.77;;;2.20;;
3547;SDS011;1788;49.400;11.092;2022-10-16T17:53:58;2.50;;;2.30;;
3547;SDS011;1788;49.400;11.092;2022-10-16T17:56:24;3.83;;;2.30;;
3547;SDS011;1788;49.400;11.092;2022-10-16T17:58:51;2.83;;;2.63;;
3547;SDS011;1788;49.400;11.092;2022-10-16T18:01:18;3.03;;;2.67;;
3547;SDS011;1788;49.400;11.092;2022-10-16T18:03:47;3.67;;;2.67;;
3547;SDS011;1788;49.400;11.092;2022-10-16T18:06:10;2.70;;;2.50;;
3547;SDS011;1788;49.400;11.092;2022-10-16T18:08:37;4.13;;;2.60;;
3547;SDS011;1788;49.400;11.092;2022-10-16T18:11:03;2.60;;;2.40;;
3547;SDS011;1788;49.400;11.092;2022-10-16T18:13:30;1.57;;;1.50;;
3547;SDS011;1788;49.400;11.092;2022-10-16T18:18:23;3.33;;;2.47;;
3547;SDS011;1788;49.400;11.092;2022-10-16T18:23:18;4.83;;;3.40;;
3547;SDS011;1788;49.400;11.092;2022-10-16T18:28:11;5.33;;;4.13;;
3547;SDS011;1788;49.400;11.092;2022-10-16T18:30:38;3.90;;;3.20;;
3547;SDS011;1788;49.400;11.092;2022-10-16T18:33:05;4.77;;;3.47;;
3547;SDS011;1788;49.400;11.092;2022-10-16T18:35:34;4.37;;;3.33;;
3547;SDS011;1788;49.400;11.092;2022-10-16T18:37:58;5.37;;;2.80;;
3547;SDS011;1788;49.400;11.092;2022-10-16T18:40:24;2.60;;;2.20;;
3547;SDS011;1788;49.400;11.092;2022-10-16T18:42:51;3.40;;;3.17;;